createdAt,value
2018-04-29T00:00:15.985Z,64.70
2018-04-29T00:02:44.114Z,64.30
2018-04-29T00:05:12.245Z,64.36
2018-04-29T00:07:40.386Z,64.66
2018-04-29T00:10:08.514Z,65.31
2018-04-29T00:12:36.652Z,65.06
2018-04-29T00:15:04.778Z,65.10
2018-04-29T00:17:32.896Z,65.70
2018-04-29T00:20:01.019Z,65.83
2018-04-29T00:22:29.142Z,66.03
2018-04-29T00:24:57.256Z,66.20
2018-04-29T00:27:25.382Z,66.14
2018-04-29T00:29:53.520Z,66.45
2018-04-29T00:32:21.660Z,66.99
2018-04-29T00:34:49.767Z,66.51
2018-04-29T00:37:17.879Z,66.68
2018-04-29T00:39:46.027Z,67.03
2018-04-29T00:42:14.140Z,67.15
2018-04-29T00:44:42.244Z,67.01
2018-04-29T00:47:10.401Z,67.19
2018-04-29T00:49:38.507Z,67.63
2018-04-29T00:52:06.639Z,67.54
2018-04-29T00:54:34.802Z,67.43
2018-04-29T00:57:02.918Z,67.69
2018-04-29T00:59:31.028Z,68.08
2018-04-29T01:01:59.159Z,68.28
2018-04-29T01:04:27.272Z,68.18
2018-04-29T01:06:55.469Z,68.21
2018-04-29T01:09:23.699Z,68.83
2018-04-29T01:11:51.901Z,68.91
2018-04-29T01:14:20.095Z,68.72
2018-04-29T01:16:48.261Z,68.91
2018-04-29T01:19:16.386Z,69.36
2018-04-29T01:21:45.315Z,69.40
2018-04-29T01:24:13.746Z,69.34
2018-04-29T01:26:41.870Z,69.28
2018-04-29T01:29:09.980Z,69.25
2018-04-29T01:31:38.137Z,69.57
2018-04-29T01:34:06.276Z,69.89
2018-04-29T01:36:34.472Z,69.73
2018-04-29T01:39:02.609Z,69.86
2018-04-29T01:41:30.795Z,69.84
2018-04-29T01:43:58.908Z,69.87
2018-04-29T01:46:27.038Z,69.82
2018-04-29T01:48:55.159Z,70.05
2018-04-29T01:51:23.285Z,70.07
2018-04-29T01:53:51.616Z,70.19
2018-04-29T01:56:19.720Z,70.49
2018-04-29T01:58:47.866Z,70.96
2018-04-29T02:01:15.994Z,70.79
2018-04-29T02:03:44.100Z,70.94
2018-04-29T02:06:12.212Z,70.91
2018-04-29T02:08:40.753Z,71.36
2018-04-29T02:11:08.878Z,71.30
2018-04-29T02:13:37.004Z,70.97
2018-04-29T02:16:05.130Z,71.41
2018-04-29T02:18:33.250Z,72.14
2018-04-29T02:21:01.388Z,71.85
2018-04-29T02:23:29.583Z,71.43
2018-04-29T02:25:57.725Z,71.78
2018-04-29T02:28:25.837Z,71.67
2018-04-29T02:30:53.973Z,71.41
2018-04-29T02:33:22.098Z,71.72
2018-04-29T02:35:50.259Z,72.06
2018-04-29T02:38:18.379Z,71.43
2018-04-29T02:40:46.566Z,71.76
2018-04-29T02:43:14.625Z,71.79
2018-04-29T02:45:42.778Z,71.82
2018-04-29T02:48:10.906Z,72.08
2018-04-29T02:50:39.029Z,72.28
2018-04-29T02:53:07.144Z,72.28
2018-04-29T02:55:35.275Z,72.24
2018-04-29T02:58:03.400Z,72.10
2018-04-29T03:00:31.528Z,72.03
2018-04-29T03:02:59.647Z,72.31
2018-04-29T03:05:27.774Z,72.13
2018-04-29T03:07:55.891Z,71.67
2018-04-29T03:10:24.014Z,72.96
2018-04-29T03:12:52.134Z,72.82
2018-04-29T03:15:20.265Z,72.73
2018-04-29T03:17:48.365Z,72.73
2018-04-29T03:20:16.508Z,72.86
2018-04-29T03:22:44.639Z,72.65
2018-04-29T03:25:12.770Z,72.65
2018-04-29T03:27:40.905Z,72.84
2018-04-29T03:30:09.044Z,73.10
2018-04-29T03:32:37.177Z,73.09
2018-04-29T03:35:05.321Z,73.58
2018-04-29T03:37:33.440Z,73.65
2018-04-29T03:40:01.581Z,73.55
2018-04-29T03:42:29.694Z,73.78
2018-04-29T03:44:57.857Z,73.78
2018-04-29T03:47:25.991Z,74.35
2018-04-29T03:49:54.106Z,74.08
2018-04-29T03:52:22.235Z,73.94
2018-04-29T03:54:50.364Z,74.29
2018-04-29T03:57:30.440Z,74.63
2018-04-29T04:00:10.263Z,74.39
2018-04-29T04:02:50.201Z,74.44
2018-04-29T04:05:18.256Z,74.38
2018-04-29T04:07:46.378Z,74.45
2018-04-29T04:10:14.505Z,74.59
2018-04-29T04:12:42.609Z,74.69
2018-04-29T04:15:11.060Z,74.56
2018-04-29T04:17:39.208Z,74.71
2018-04-29T04:20:07.316Z,74.73
2018-04-29T04:22:35.442Z,74.67
2018-04-29T04:25:03.587Z,74.81
2018-04-29T04:27:31.707Z,75.27
2018-04-29T04:29:59.820Z,75.06
2018-04-29T04:32:27.950Z,75.21
2018-04-29T04:34:56.055Z,74.84
2018-04-29T04:37:24.163Z,75.43
2018-04-29T04:39:52.287Z,75.42
2018-04-29T04:42:20.413Z,75.14
2018-04-29T04:44:48.530Z,75.55
2018-04-29T04:47:16.680Z,75.22
2018-04-29T04:49:44.801Z,75.57
2018-04-29T04:52:12.962Z,75.33
2018-04-29T04:54:41.087Z,75.18
2018-04-29T04:57:09.211Z,74.92
2018-04-29T04:59:37.351Z,75.18
2018-04-29T05:02:05.505Z,75.21
2018-04-29T05:04:33.619Z,75.08
2018-04-29T05:07:01.886Z,75.05
2018-04-29T05:09:30.214Z,74.64
2018-04-29T05:11:58.319Z,74.85
2018-04-29T05:14:26.434Z,75.00
2018-04-29T05:16:54.589Z,75.23
2018-04-29T05:19:22.736Z,75.25
2018-04-29T05:21:58.109Z,75.04
2018-04-29T05:24:26.230Z,75.43
2018-04-29T05:26:54.385Z,75.12
2018-04-29T05:29:22.510Z,75.54
2018-04-29T05:31:50.630Z,75.04
2018-04-29T05:34:18.750Z,74.68
2018-04-29T05:36:46.882Z,74.65
2018-04-29T05:39:14.990Z,75.00
2018-04-29T05:41:43.115Z,75.06
2018-04-29T05:44:11.268Z,74.69
2018-04-29T05:46:39.371Z,74.53
2018-04-29T05:49:07.484Z,74.98
2018-04-29T05:51:35.603Z,74.91
2018-04-29T05:54:03.731Z,75.12
2018-04-29T05:56:31.847Z,74.97
2018-04-29T05:58:59.993Z,75.20
2018-04-29T06:01:28.099Z,75.62
2018-04-29T06:03:56.227Z,75.92
2018-04-29T06:06:24.418Z,75.81
2018-04-29T06:08:52.498Z,75.62
2018-04-29T06:11:20.610Z,75.17
2018-04-29T06:13:48.760Z,74.77
2018-04-29T06:16:16.930Z,74.16
2018-04-29T06:18:45.095Z,72.11
2018-04-29T06:21:14.094Z,71.09
2018-04-29T06:23:42.221Z,70.54
2018-04-29T06:26:10.442Z,71.23
2018-04-29T06:28:38.498Z,71.98
2018-04-29T06:31:06.625Z,71.69
2018-04-29T06:33:34.751Z,72.26
2018-04-29T06:36:02.904Z,72.03
2018-04-29T06:38:31.004Z,71.72
2018-04-29T06:40:59.117Z,72.27
2018-04-29T06:43:30.449Z,71.23
2018-04-29T06:46:00.460Z,71.47
2018-04-29T06:48:28.585Z,69.02
2018-04-29T06:50:56.722Z,70.09
2018-04-29T06:53:28.663Z,70.43
2018-04-29T06:55:56.709Z,70.92
2018-04-29T06:58:24.854Z,71.59
2018-04-29T07:00:53.060Z,71.02
2018-04-29T07:03:21.133Z,71.57
2018-04-29T07:05:49.270Z,71.77
2018-04-29T07:08:17.385Z,72.51
2018-04-29T07:10:45.508Z,73.00
2018-04-29T07:13:13.660Z,73.74
2018-04-29T07:15:41.801Z,74.74
2018-04-29T07:18:09.928Z,75.78
2018-04-29T07:20:38.055Z,76.39
2018-04-29T07:23:06.164Z,77.95
2018-04-29T07:25:34.279Z,78.63
2018-04-29T07:28:02.425Z,79.46
2018-04-29T07:30:30.565Z,80.64
2018-04-29T07:32:58.700Z,81.03
2018-04-29T07:35:26.837Z,80.87
2018-04-29T07:37:54.971Z,80.87
2018-04-29T07:40:23.108Z,82.24
2018-04-29T07:42:51.260Z,81.38
2018-04-29T07:45:19.387Z,82.02
2018-04-29T07:47:47.513Z,82.97
2018-04-29T07:50:15.642Z,83.44
2018-04-29T07:52:43.795Z,82.90
2018-04-29T07:55:11.934Z,83.64
2018-04-29T07:57:40.092Z,82.15
2018-04-29T08:00:11.340Z,82.56
2018-04-29T08:02:39.481Z,82.77
2018-04-29T08:05:07.618Z,83.34
2018-04-29T08:07:35.723Z,83.61
2018-04-29T08:10:03.878Z,84.24
2018-04-29T08:12:32.021Z,84.43
2018-04-29T08:15:00.147Z,84.03
2018-04-29T08:17:29.314Z,83.54
2018-04-29T08:19:57.443Z,83.04
2018-04-29T08:22:25.564Z,82.45
2018-04-29T08:24:53.708Z,82.71
2018-04-29T08:27:21.850Z,83.45
2018-04-29T08:29:49.984Z,82.73
2018-04-29T08:32:18.110Z,82.22
2018-04-29T08:34:46.239Z,81.64
2018-04-29T08:37:14.391Z,81.33
2018-04-29T08:39:42.491Z,81.77
2018-04-29T08:42:10.795Z,82.61
2018-04-29T08:44:38.926Z,82.24
2018-04-29T08:47:07.081Z,83.08
2018-04-29T08:49:35.214Z,84.26
2018-04-29T08:52:03.348Z,85.22
2018-04-29T08:54:31.626Z,84.89
2018-04-29T08:56:59.753Z,85.10
2018-04-29T08:59:27.891Z,85.52
2018-04-29T09:01:56.017Z,85.91
2018-04-29T09:04:24.308Z,85.84
2018-04-29T09:06:52.423Z,85.18
2018-04-29T09:09:20.588Z,84.88
2018-04-29T09:11:48.743Z,84.49
2018-04-29T09:14:16.877Z,85.11
2018-04-29T09:16:44.997Z,83.73
2018-04-29T09:19:13.177Z,83.66
2018-04-29T09:21:41.318Z,83.76
2018-04-29T09:24:09.455Z,83.05
2018-04-29T09:26:37.602Z,82.62
2018-04-29T09:29:05.742Z,81.96
2018-04-29T09:31:33.885Z,81.25
2018-04-29T09:34:02.041Z,81.23
2018-04-29T09:36:30.170Z,81.64
2018-04-29T09:38:58.323Z,80.77
2018-04-29T09:41:26.462Z,81.06
2018-04-29T09:43:54.581Z,79.77
2018-04-29T09:46:22.801Z,79.60
2018-04-29T09:48:51.027Z,79.21
2018-04-29T09:51:19.235Z,79.58
2018-04-29T09:53:47.423Z,78.61
2018-04-29T09:56:15.819Z,79.62
2018-04-29T09:58:43.947Z,79.98
2018-04-29T10:01:17.979Z,77.39
2018-04-29T10:03:47.741Z,78.79
2018-04-29T10:06:15.863Z,77.74
2018-04-29T10:08:43.993Z,78.04
2018-04-29T10:11:12.125Z,75.54
2018-04-29T10:13:40.248Z,77.25
2018-04-29T10:16:08.383Z,78.88
2018-04-29T10:18:36.915Z,76.75
2018-04-29T10:21:05.035Z,78.55
2018-04-29T10:23:33.192Z,74.48
2018-04-29T10:26:01.303Z,74.67
2018-04-29T10:28:29.446Z,73.31
2018-04-29T10:30:57.765Z,73.85
2018-04-29T10:33:25.905Z,73.60
2018-04-29T10:35:54.023Z,72.68
2018-04-29T10:38:22.174Z,73.15
2018-04-29T10:40:50.317Z,74.00
2018-04-29T10:43:18.438Z,73.70
2018-04-29T10:45:46.969Z,72.54
2018-04-29T10:48:15.129Z,73.42
2018-04-29T10:50:43.247Z,72.16
2018-04-29T10:53:11.595Z,70.03
2018-04-29T10:55:39.737Z,70.15
2018-04-29T10:58:07.880Z,69.93
2018-04-29T11:00:36.012Z,69.87
2018-04-29T11:03:04.139Z,68.94
2018-04-29T11:05:32.258Z,68.71
2018-04-29T11:08:00.388Z,68.54
2018-04-29T11:10:28.526Z,69.30
2018-04-29T11:12:56.627Z,69.49
2018-04-29T11:15:24.793Z,69.37
2018-04-29T11:17:52.919Z,69.18
2018-04-29T11:20:21.050Z,68.63
2018-04-29T11:22:49.198Z,69.10
2018-04-29T11:25:17.316Z,67.60
2018-04-29T11:27:45.449Z,68.62
2018-04-29T11:30:13.625Z,68.82
2018-04-29T11:32:41.743Z,68.45
2018-04-29T11:35:09.870Z,68.84
2018-04-29T11:37:38.033Z,67.81
2018-04-29T11:40:06.150Z,68.29
2018-04-29T11:42:34.300Z,68.15
2018-04-29T11:45:02.638Z,67.93
2018-04-29T11:47:30.785Z,69.55
2018-04-29T11:49:58.902Z,69.15
2018-04-29T11:52:27.258Z,68.64
2018-04-29T11:54:55.401Z,68.17
2018-04-29T11:57:23.523Z,67.50
2018-04-29T11:59:51.683Z,67.86
2018-04-29T12:02:19.803Z,68.23
2018-04-29T12:04:47.926Z,66.30
2018-04-29T12:07:16.085Z,65.32
2018-04-29T12:09:44.192Z,64.63
2018-04-29T12:12:12.410Z,64.78
2018-04-29T12:14:40.485Z,65.21
2018-04-29T12:17:08.607Z,63.79
2018-04-29T12:19:36.730Z,63.80
2018-04-29T12:22:04.878Z,64.02
2018-04-29T12:24:33.133Z,64.27
2018-04-29T12:27:01.109Z,63.77
2018-04-29T12:29:29.273Z,63.12
2018-04-29T12:31:57.413Z,63.55
2018-04-29T12:34:25.531Z,63.89
2018-04-29T12:36:53.688Z,63.19
2018-04-29T12:39:21.797Z,62.06
2018-04-29T12:41:49.922Z,62.75
2018-04-29T12:44:18.078Z,62.50
2018-04-29T12:46:46.262Z,62.08
2018-04-29T12:49:14.335Z,62.48
2018-04-29T12:51:42.485Z,63.30
2018-04-29T12:54:10.690Z,64.05
2018-04-29T12:56:38.785Z,64.53
2018-04-29T12:59:06.922Z,63.08
2018-04-29T13:01:35.043Z,64.11
2018-04-29T13:04:03.163Z,64.35
2018-04-29T13:06:31.308Z,64.43
2018-04-29T13:08:59.415Z,63.73
2018-04-29T13:11:30.493Z,63.37
2018-04-29T13:13:58.621Z,63.70
2018-04-29T13:16:26.742Z,64.34
2018-04-29T13:18:54.873Z,62.86
2018-04-29T13:21:23.014Z,63.70
2018-04-29T13:23:51.153Z,64.34
2018-04-29T13:26:19.260Z,64.17
2018-04-29T13:28:47.478Z,63.38
2018-04-29T13:31:15.535Z,64.03
2018-04-29T13:33:43.640Z,64.75
2018-04-29T13:36:11.782Z,65.11
2018-04-29T13:38:39.889Z,65.04
2018-04-29T13:41:08.000Z,64.79
2018-04-29T13:43:36.323Z,64.22
2018-04-29T13:46:04.452Z,62.43
2018-04-29T13:48:32.570Z,63.49
2018-04-29T13:51:00.723Z,62.06
2018-04-29T13:53:28.998Z,61.19
2018-04-29T13:55:57.122Z,62.74
2018-04-29T13:58:25.262Z,62.10
2018-04-29T14:00:53.448Z,63.31
2018-04-29T14:03:21.597Z,62.33
2018-04-29T14:05:49.634Z,63.29
2018-04-29T14:08:17.805Z,62.70
2018-04-29T14:10:46.008Z,61.69
2018-04-29T14:13:14.191Z,61.53
2018-04-29T14:15:42.345Z,61.41
2018-04-29T14:18:10.449Z,61.57
2018-04-29T14:20:38.568Z,62.75
2018-04-29T14:23:06.698Z,63.08
2018-04-29T14:25:34.807Z,61.88
2018-04-29T14:28:03.082Z,61.41
2018-04-29T14:30:31.213Z,61.25
2018-04-29T14:32:59.326Z,61.04
2018-04-29T14:35:27.460Z,60.82
2018-04-29T14:37:55.564Z,60.32
2018-04-29T14:40:23.667Z,60.02
2018-04-29T14:42:51.802Z,59.33
2018-04-29T14:45:19.915Z,59.83
2018-04-29T14:47:48.048Z,58.73
2018-04-29T14:50:16.192Z,60.14
2018-04-29T14:52:44.320Z,58.41
2018-04-29T14:55:12.443Z,56.41
2018-04-29T14:57:40.565Z,56.93
2018-04-29T15:00:08.691Z,58.05
2018-04-29T15:02:36.828Z,58.17
2018-04-29T15:05:04.954Z,56.79
2018-04-29T15:07:33.089Z,58.75
2018-04-29T15:10:01.185Z,56.98
2018-04-29T15:12:29.318Z,58.31
2018-04-29T15:14:57.430Z,57.31
2018-04-29T15:17:25.528Z,57.63
2018-04-29T15:19:53.643Z,58.46
2018-04-29T15:22:21.783Z,56.23
2018-04-29T15:24:49.979Z,55.53
2018-04-29T15:27:18.007Z,55.60
2018-04-29T15:29:46.133Z,57.15
2018-04-29T15:32:15.163Z,56.89
2018-04-29T15:34:43.304Z,57.42
2018-04-29T15:37:11.439Z,56.54
2018-04-29T15:39:39.540Z,56.06
2018-04-29T15:42:07.681Z,55.91
2018-04-29T15:44:35.801Z,56.22
2018-04-29T15:47:03.900Z,56.13
2018-04-29T15:49:32.055Z,55.38
2018-04-29T15:52:00.154Z,56.18
2018-04-29T15:54:28.283Z,54.50
2018-04-29T15:56:56.400Z,55.21
2018-04-29T15:59:24.533Z,58.06
2018-04-29T16:01:52.669Z,57.91
2018-04-29T16:04:20.783Z,59.10
2018-04-29T16:06:48.963Z,58.28
2018-04-29T16:09:17.096Z,56.17
2018-04-29T16:11:45.227Z,54.11
2018-04-29T16:14:13.360Z,54.21
2018-04-29T16:16:41.461Z,54.12
2018-04-29T16:19:09.587Z,54.92
2018-04-29T16:21:37.710Z,54.05
2018-04-29T16:24:05.826Z,54.58
2018-04-29T16:26:33.959Z,55.22
2018-04-29T16:29:02.092Z,55.86
2018-04-29T16:31:30.221Z,55.86
2018-04-29T16:33:58.375Z,56.09
2018-04-29T16:36:26.525Z,56.32
2018-04-29T16:38:54.619Z,55.81
2018-04-29T16:41:22.823Z,56.17
2018-04-29T16:43:51.230Z,56.23
2018-04-29T16:46:20.199Z,56.20
2018-04-29T16:48:48.355Z,57.11
2018-04-29T16:51:16.490Z,57.62
2018-04-29T16:53:44.620Z,57.12
2018-04-29T16:56:12.744Z,57.72
2018-04-29T16:58:40.867Z,58.49
2018-04-29T17:01:09.049Z,58.45
2018-04-29T17:03:37.135Z,58.78
2018-04-29T17:06:05.263Z,59.25
2018-04-29T17:08:33.397Z,58.87
2018-04-29T17:11:01.514Z,58.87
2018-04-29T17:13:29.620Z,58.63
2018-04-29T17:15:57.765Z,58.83
2018-04-29T17:18:25.928Z,58.25
2018-04-29T17:20:54.148Z,58.63
2018-04-29T17:23:22.332Z,59.39
2018-04-29T17:25:50.466Z,59.67
2018-04-29T17:28:18.653Z,59.71
2018-04-29T17:30:46.939Z,59.90
2018-04-29T17:33:15.121Z,60.14
2018-04-29T17:35:43.365Z,60.62
2018-04-29T17:38:11.576Z,61.38
2018-04-29T17:40:39.640Z,62.64
2018-04-29T17:43:07.758Z,61.91
2018-04-29T17:45:35.856Z,62.02
2018-04-29T17:48:04.003Z,63.54
2018-04-29T17:50:32.132Z,64.96
2018-04-29T17:53:00.257Z,65.22
2018-04-29T17:55:28.410Z,65.61
2018-04-29T17:57:56.622Z,65.73
2018-04-29T18:00:24.743Z,65.67
2018-04-29T18:02:52.886Z,66.47
2018-04-29T18:05:21.038Z,67.33
2018-04-29T18:07:49.179Z,67.75
2018-04-29T18:10:17.321Z,68.32
2018-04-29T18:12:45.463Z,68.48
2018-04-29T18:15:13.725Z,68.45
2018-04-29T18:17:41.871Z,68.17
2018-04-29T18:20:10.012Z,68.47
2018-04-29T18:22:38.115Z,68.71
2018-04-29T18:25:06.530Z,69.06
2018-04-29T18:27:34.698Z,68.98
2018-04-29T18:30:02.783Z,68.68
2018-04-29T18:32:30.900Z,69.08
2018-04-29T18:34:59.027Z,69.11
2018-04-29T18:37:27.150Z,69.00
2018-04-29T18:39:55.282Z,69.50
2018-04-29T18:42:23.392Z,69.60
2018-04-29T18:44:51.534Z,69.57
2018-04-29T18:47:19.670Z,70.06
2018-04-29T18:49:47.797Z,69.74
2018-04-29T18:52:15.932Z,70.51
2018-04-29T18:54:44.079Z,70.90
2018-04-29T18:57:12.213Z,71.01
2018-04-29T18:59:40.312Z,71.41
2018-04-29T19:02:08.508Z,71.93
2018-04-29T19:04:36.626Z,72.29
2018-04-29T19:07:04.744Z,72.93
2018-04-29T19:09:33.279Z,72.42
2018-04-29T19:12:01.418Z,72.31
2018-04-29T19:14:29.520Z,72.08
2018-04-29T19:16:57.857Z,72.58
2018-04-29T19:19:25.982Z,72.69
2018-04-29T19:21:54.127Z,72.48
2018-04-29T19:24:22.258Z,72.40
2018-04-29T19:26:50.375Z,70.72
2018-04-29T19:29:18.523Z,71.53
2018-04-29T19:31:46.646Z,71.07
2018-04-29T19:34:14.756Z,70.74
2018-04-29T19:36:42.896Z,69.99
2018-04-29T19:39:11.007Z,69.94
2018-04-29T19:41:39.115Z,70.64
2018-04-29T19:44:07.224Z,70.02
2018-04-29T19:46:35.394Z,70.17
2018-04-29T19:49:03.533Z,70.35
2018-04-29T19:51:31.729Z,70.88
2018-04-29T19:53:59.921Z,71.11
2018-04-29T19:56:28.046Z,70.97
2018-04-29T19:58:59.954Z,71.04
2018-04-29T20:01:28.094Z,71.24
2018-04-29T20:03:56.231Z,71.70
2018-04-29T20:06:24.356Z,71.76
2018-04-29T20:08:52.480Z,71.61
2018-04-29T20:11:20.732Z,71.66
2018-04-29T20:13:48.857Z,71.92
2018-04-29T20:16:16.959Z,72.16
2018-04-29T20:18:45.078Z,72.54
2018-04-29T20:21:13.183Z,72.96
2018-04-29T20:23:41.306Z,73.59
2018-04-29T20:26:09.430Z,73.96
2018-04-29T20:28:37.564Z,74.57
2018-04-29T20:31:05.832Z,74.87
2018-04-29T20:33:33.959Z,74.85
2018-04-29T20:36:02.097Z,75.33
2018-04-29T20:38:30.228Z,75.45
2018-04-29T20:40:58.344Z,74.97
2018-04-29T20:43:26.467Z,74.82
2018-04-29T20:45:55.520Z,74.83
2018-04-29T20:48:23.720Z,75.55
2018-04-29T20:50:51.762Z,75.43
2018-04-29T20:53:19.914Z,75.50
2018-04-29T20:55:48.090Z,75.38
2018-04-29T20:58:16.215Z,75.36
2018-04-29T21:00:44.604Z,75.25
2018-04-29T21:03:13.099Z,75.09
2018-04-29T21:05:41.214Z,74.88
2018-04-29T21:08:09.619Z,74.89
2018-04-29T21:10:37.744Z,74.62
2018-04-29T21:13:05.858Z,74.45
2018-04-29T21:15:33.975Z,74.40
2018-04-29T21:18:03.487Z,74.30
2018-04-29T21:20:31.583Z,74.59
2018-04-29T21:22:59.745Z,74.56
2018-04-29T21:25:27.876Z,74.63
2018-04-29T21:27:56.042Z,74.55
2018-04-29T21:30:24.225Z,74.67
2018-04-29T21:32:52.357Z,74.55
2018-04-29T21:35:20.615Z,74.69
2018-04-29T21:37:48.996Z,74.60
2018-04-29T21:40:17.136Z,74.63
2018-04-29T21:42:45.259Z,74.97
2018-04-29T21:45:13.538Z,74.82
2018-04-29T21:47:41.662Z,74.45
2018-04-29T21:50:09.786Z,74.43
2018-04-29T21:52:37.930Z,74.49
2018-04-29T21:55:06.035Z,74.69
2018-04-29T21:57:34.169Z,75.19
2018-04-29T22:00:02.395Z,75.16
2018-04-29T22:02:30.484Z,75.58
2018-04-29T22:04:58.610Z,76.11
2018-04-29T22:07:26.743Z,76.93
2018-04-29T22:09:54.989Z,77.83
2018-04-29T22:12:23.091Z,78.45
2018-04-29T22:14:51.320Z,79.05
2018-04-29T22:17:19.428Z,79.66
2018-04-29T22:19:47.570Z,79.76
2018-04-29T22:22:19.266Z,80.11
2018-04-29T22:24:47.572Z,80.05
2018-04-29T22:27:15.734Z,80.29
2018-04-29T22:29:43.908Z,80.92
2018-04-29T22:32:12.077Z,81.83
2018-04-29T22:34:40.216Z,82.50
2018-04-29T22:37:08.483Z,82.29
2018-04-29T22:39:39.870Z,83.84
2018-04-29T22:42:07.998Z,83.35
2018-04-29T22:44:36.137Z,83.24
2018-04-29T22:47:04.267Z,82.53
2018-04-29T22:49:32.445Z,82.24
2018-04-29T22:52:00.578Z,82.79
2018-04-29T22:54:28.691Z,84.21
2018-04-29T22:56:56.826Z,84.10
2018-04-29T22:59:25.191Z,84.18
2018-04-29T23:01:53.348Z,84.04
2018-04-29T23:04:21.437Z,85.47
2018-04-29T23:06:49.574Z,85.46
2018-04-29T23:09:17.725Z,84.75
2018-04-29T23:11:45.867Z,84.71
2018-04-29T23:14:13.991Z,85.20
2018-04-29T23:16:42.123Z,85.95
2018-04-29T23:19:10.703Z,87.16
2018-04-29T23:21:38.869Z,86.82
2018-04-29T23:24:06.994Z,87.69
2018-04-29T23:26:35.145Z,88.35
2018-04-29T23:29:03.282Z,88.59
2018-04-29T23:31:31.426Z,88.99
2018-04-29T23:33:59.538Z,89.45
2018-04-29T23:36:28.007Z,89.07
2018-04-29T23:38:56.138Z,88.62
2018-04-29T23:41:24.269Z,88.96
2018-04-29T23:43:52.407Z,89.03
2018-04-29T23:46:20.531Z,89.04
2018-04-29T23:48:48.690Z,88.96
2018-04-29T23:51:16.824Z,88.72
2018-04-29T23:53:44.947Z,88.99
2018-04-29T23:56:13.099Z,89.32
2018-04-29T23:58:41.480Z,89.57
